createdAt,value
2015-09-18T00:00:01.510Z,73702
2015-09-18T00:00:13.916Z,73703
2015-09-18T00:00:26.323Z,73706
2015-09-18T00:00:38.729Z,73703
2015-09-18T00:00:51.135Z,73704
2015-09-18T00:01:03.543Z,73700
2015-09-18T00:01:15.965Z,73706
2015-09-18T00:01:28.371Z,73699
2015-09-18T00:01:40.762Z,73709
2015-09-18T00:01:53.168Z,73709
2015-09-18T00:02:05.560Z,73704
2015-09-18T00:02:17.966Z,73711
2015-09-18T00:02:30.388Z,73700
2015-09-18T00:02:42.794Z,73709
2015-09-18T00:02:55.185Z,73705
2015-09-18T00:03:07.593Z,73707
2015-09-18T00:03:19.984Z,73704
2015-09-18T00:03:32.390Z,73701
2015-09-18T00:03:44.812Z,73703
2015-09-18T00:03:57.236Z,73698
2015-09-18T00:04:09.642Z,73712
2015-09-18T00:04:22.033Z,73701
2015-09-18T00:04:34.439Z,73707
2015-09-18T00:04:46.814Z,73697
2015-09-18T00:04:59.238Z,73702
2015-09-18T00:05:11.644Z,73703
2015-09-18T00:05:24.066Z,73702
2015-09-18T00:05:36.457Z,73704
2015-09-18T00:05:48.847Z,73704
2015-09-18T00:06:01.255Z,73701
2015-09-18T00:06:13.646Z,73704
2015-09-18T00:06:26.068Z,73699
2015-09-18T00:06:38.474Z,73708
2015-09-18T00:06:50.880Z,73699
2015-09-18T00:07:03.289Z,73702
2015-09-18T00:07:15.679Z,73703
2015-09-18T00:07:28.070Z,73702
2015-09-18T00:07:40.476Z,73701
2015-09-18T00:07:52.882Z,73699
2015-09-18T00:08:05.306Z,73707
2015-09-18T00:08:17.541Z,73702
2015-09-18T00:08:29.931Z,73705
2015-09-18T00:08:42.353Z,73699
2015-09-18T00:08:54.744Z,73707
2015-09-18T00:09:07.152Z,73703
2015-09-18T00:09:19.590Z,73703
2015-09-18T00:09:31.996Z,73700
2015-09-18T00:09:44.386Z,73695
2015-09-18T00:09:56.777Z,73702
2015-09-18T00:10:09.185Z,73691
2015-09-18T00:10:21.592Z,73698
2015-09-18T00:10:33.998Z,73694
2015-09-18T00:10:46.420Z,73699
2015-09-18T00:10:58.826Z,73693
2015-09-18T00:11:11.234Z,73700
2015-09-18T00:11:23.640Z,73703
2015-09-18T00:11:36.031Z,73703
2015-09-18T00:11:48.437Z,73706
2015-09-18T00:12:00.844Z,73702
2015-09-18T00:12:13.282Z,73705
2015-09-18T00:12:25.516Z,73705
2015-09-18T00:12:37.923Z,73708
2015-09-18T00:12:50.313Z,73705
2015-09-18T00:13:02.766Z,73713
2015-09-18T00:13:15.176Z,73708
2015-09-18T00:13:27.582Z,73705
2015-09-18T00:13:40.004Z,73704
2015-09-18T00:13:52.394Z,73705
2015-09-18T00:14:04.785Z,73712
2015-09-18T00:14:17.209Z,73706
2015-09-18T00:14:29.600Z,73698
2015-09-18T00:14:42.021Z,73706
2015-09-18T00:14:54.428Z,73696
2015-09-18T00:15:06.834Z,73702
2015-09-18T00:15:19.241Z,73699
2015-09-18T00:15:31.632Z,73697
2015-09-18T00:15:44.038Z,73701
2015-09-18T00:15:56.444Z,73699
2015-09-18T00:16:08.851Z,73701
2015-09-18T00:16:21.275Z,73697
2015-09-18T00:16:33.682Z,73698
2015-09-18T00:16:46.088Z,73700
2015-09-18T00:16:58.479Z,73698
2015-09-18T00:17:10.166Z,73693
2015-09-18T00:17:22.574Z,73696
2015-09-18T00:17:34.981Z,73696
2015-09-18T00:17:47.418Z,73701
2015-09-18T00:17:59.809Z,73694
2015-09-18T00:18:12.215Z,73697
2015-09-18T00:18:24.607Z,73700
2015-09-18T00:18:36.841Z,73696
2015-09-18T00:18:49.263Z,73699
2015-09-18T00:19:01.685Z,73694
2015-09-18T00:19:14.091Z,73702
2015-09-18T00:19:26.485Z,73698
2015-09-18T00:19:38.891Z,73699
2015-09-18T00:19:51.297Z,73701
2015-09-18T00:20:03.688Z,73705
2015-09-18T00:20:15.391Z,73703
2015-09-18T00:20:27.815Z,73707
2015-09-18T00:20:40.205Z,73706
2015-09-18T00:20:52.612Z,73702
2015-09-18T00:21:04.862Z,73701
2015-09-18T00:21:17.268Z,73709
2015-09-18T00:21:29.660Z,73704
2015-09-18T00:21:42.067Z,73704
2015-09-18T00:21:53.770Z,73706
2015-09-18T00:22:06.176Z,73704
2015-09-18T00:22:18.582Z,73704
2015-09-18T00:22:30.975Z,73703
2015-09-18T00:22:43.381Z,73704
2015-09-18T00:22:55.772Z,73700
2015-09-18T00:23:08.194Z,73700
2015-09-18T00:23:20.600Z,73703
2015-09-18T00:23:33.007Z,73700
2015-09-18T00:23:45.398Z,73702
2015-09-18T00:23:57.804Z,73698
2015-09-18T00:24:10.210Z,73699
2015-09-18T00:24:22.617Z,73693
2015-09-18T00:24:35.026Z,73699
2015-09-18T00:24:47.416Z,73694
2015-09-18T00:24:59.823Z,73695
2015-09-18T00:25:12.213Z,73697
2015-09-18T00:25:24.620Z,73692
2015-09-18T00:25:37.011Z,73698
2015-09-18T00:25:49.433Z,73689
2015-09-18T00:26:01.855Z,73693
2015-09-18T00:26:14.246Z,73686
2015-09-18T00:26:25.933Z,73689
2015-09-18T00:26:38.341Z,73688
2015-09-18T00:26:50.748Z,73689
2015-09-18T00:27:03.169Z,73688
2015-09-18T00:27:15.591Z,73688
2015-09-18T00:27:27.998Z,73687
2015-09-18T00:27:40.390Z,73687
2015-09-18T00:27:52.796Z,73690
2015-09-18T00:28:05.187Z,73682
2015-09-18T00:28:17.593Z,73687
2015-09-18T00:28:30.000Z,73686
2015-09-18T00:28:42.424Z,73686
2015-09-18T00:28:54.815Z,73687
2015-09-18T00:29:07.206Z,73692
2015-09-18T00:29:18.893Z,73690
2015-09-18T00:29:31.285Z,73692
2015-09-18T00:29:43.691Z,73683
2015-09-18T00:29:56.113Z,73691
2015-09-18T00:30:07.816Z,73686
2015-09-18T00:30:20.066Z,73691
2015-09-18T00:30:32.177Z,73692
2015-09-18T00:30:44.584Z,73689
2015-09-18T00:30:57.006Z,73694
2015-09-18T00:31:09.115Z,73688
2015-09-18T00:31:21.427Z,73694
2015-09-18T00:31:33.836Z,73694
2015-09-18T00:31:45.633Z,73698
2015-09-18T00:31:58.023Z,73699
2015-09-18T00:32:10.273Z,73693
2015-09-18T00:32:22.664Z,73694
2015-09-18T00:32:35.072Z,73697
2015-09-18T00:32:47.494Z,73700
2015-09-18T00:32:59.619Z,73699
2015-09-18T00:33:12.010Z,73698
2015-09-18T00:33:24.416Z,73700
2015-09-18T00:33:36.808Z,73694
2015-09-18T00:33:49.215Z,73698
2015-09-18T00:34:01.621Z,73696
2015-09-18T00:34:14.043Z,73695
2015-09-18T00:34:26.433Z,73698
2015-09-18T00:34:38.826Z,73697
2015-09-18T00:34:51.232Z,73696
2015-09-18T00:35:03.498Z,73696
2015-09-18T00:35:15.889Z,73694
2015-09-18T00:35:28.310Z,73696
2015-09-18T00:35:40.719Z,73693
2015-09-18T00:35:53.109Z,73697
2015-09-18T00:36:05.516Z,73690
2015-09-18T00:36:17.906Z,73695
2015-09-18T00:36:30.328Z,73692
2015-09-18T00:36:42.752Z,73692
2015-09-18T00:36:55.205Z,73691
2015-09-18T00:37:07.658Z,73691
2015-09-18T00:37:20.317Z,73694
2015-09-18T00:37:32.609Z,73691
2015-09-18T00:37:44.768Z,73689
2015-09-18T00:37:57.283Z,73694
2015-09-18T00:38:09.721Z,73688
2015-09-18T00:38:21.830Z,73695
2015-09-18T00:38:34.049Z,73690
2015-09-18T00:38:46.947Z,73697
2015-09-18T00:38:59.822Z,73691
2015-09-18T00:39:12.338Z,73701
2015-09-18T00:39:24.760Z,73691
2015-09-18T00:39:37.213Z,73700
2015-09-18T00:39:49.841Z,73693
2015-09-18T00:40:02.837Z,73704
2015-09-18T00:40:15.433Z,73700
2015-09-18T00:40:28.807Z,73702
2015-09-18T00:40:41.854Z,73703
2015-09-18T00:40:54.340Z,73702
2015-09-18T00:41:06.731Z,73701
2015-09-18T00:41:19.121Z,73700
2015-09-18T00:41:31.528Z,73703
2015-09-18T00:41:43.934Z,73708
2015-09-18T00:41:56.342Z,73701
2015-09-18T00:42:08.733Z,73709
2015-09-18T00:42:21.342Z,73702
2015-09-18T00:42:33.780Z,73710
2015-09-18T00:42:46.186Z,73703
2015-09-18T00:42:58.641Z,73704
2015-09-18T00:43:11.094Z,73705
2015-09-18T00:43:23.563Z,73704
2015-09-18T00:43:36.016Z,73705
2015-09-18T00:43:48.469Z,73694
2015-09-18T00:44:00.909Z,73699
2015-09-18T00:44:13.299Z,73690
2015-09-18T00:44:25.705Z,73691
2015-09-18T00:44:38.112Z,73688
2015-09-18T00:44:50.518Z,73687
2015-09-18T00:45:02.957Z,73689
2015-09-18T00:45:15.348Z,73687
2015-09-18T00:45:27.739Z,73692
2015-09-18T00:45:40.145Z,73685
2015-09-18T00:45:52.552Z,73691
2015-09-18T00:46:04.271Z,73687
2015-09-18T00:46:16.677Z,73687
2015-09-18T00:46:29.099Z,73686
2015-09-18T00:46:41.552Z,73699
2015-09-18T00:46:53.993Z,73690
2015-09-18T00:47:05.711Z,73695
2015-09-18T00:47:18.149Z,73691
2015-09-18T00:47:30.665Z,73703
2015-09-18T00:47:43.055Z,73697
2015-09-18T00:47:55.447Z,73701
2015-09-18T00:48:07.853Z,73703
2015-09-18T00:48:20.259Z,73707
2015-09-18T00:48:32.650Z,73702
2015-09-18T00:48:44.900Z,73706
2015-09-18T00:48:57.308Z,73703
2015-09-18T00:49:09.699Z,73708
2015-09-18T00:49:22.105Z,73701
2015-09-18T00:49:34.540Z,73700
2015-09-18T00:49:46.962Z,73701
2015-09-18T00:49:59.385Z,73702
2015-09-18T00:50:11.807Z,73705
2015-09-18T00:50:24.245Z,73698
2015-09-18T00:50:36.682Z,73698
2015-09-18T00:50:48.948Z,73696
2015-09-18T00:51:01.403Z,73697
2015-09-18T00:51:15.028Z,73695
2015-09-18T00:51:27.512Z,73697
2015-09-18T00:51:39.903Z,73699
2015-09-18T00:51:52.294Z,73695
2015-09-18T00:52:04.718Z,73703
2015-09-18T00:52:17.139Z,73694
2015-09-18T00:52:29.546Z,73701
2015-09-18T00:52:41.983Z,73694
2015-09-18T00:52:53.702Z,73697
2015-09-18T00:53:06.111Z,73691
2015-09-18T00:53:18.596Z,73690
2015-09-18T00:53:30.986Z,73689
2015-09-18T00:53:43.424Z,73695
2015-09-18T00:53:55.846Z,73693
2015-09-18T00:54:08.237Z,73692
2015-09-18T00:54:20.643Z,73695
2015-09-18T00:54:32.206Z,73694
2015-09-18T00:54:44.612Z,73697
2015-09-18T00:54:57.018Z,73692
2015-09-18T00:55:09.411Z,73699
2015-09-18T00:55:21.833Z,73693
2015-09-18T00:55:34.239Z,73694
2015-09-18T00:55:46.661Z,73696
2015-09-18T00:55:59.083Z,73692
2015-09-18T00:56:11.522Z,73697
2015-09-18T00:56:23.960Z,73704
2015-09-18T00:56:36.382Z,73697
2015-09-18T00:56:48.804Z,73704
2015-09-18T00:57:01.194Z,73700
2015-09-18T00:57:13.587Z,73705
2015-09-18T00:57:25.993Z,73705
2015-09-18T00:57:38.384Z,73699
2015-09-18T00:57:50.774Z,73703
2015-09-18T00:58:03.196Z,73699
2015-09-18T00:58:15.589Z,73707
2015-09-18T00:58:27.995Z,73701
2015-09-18T00:58:40.401Z,73707
2015-09-18T00:58:52.808Z,73698
2015-09-18T00:59:05.214Z,73704
2015-09-18T00:59:17.638Z,73701
2015-09-18T00:59:30.060Z,73701
2015-09-18T00:59:42.482Z,73693
2015-09-18T00:59:54.935Z,73696
2015-09-18T01:00:07.325Z,73690
2015-09-18T01:00:19.718Z,73697
2015-09-18T01:00:32.109Z,73689
2015-09-18T01:00:44.515Z,73689
2015-09-18T01:00:56.905Z,73690
2015-09-18T01:01:09.312Z,73689
2015-09-18T01:01:21.564Z,73694
2015-09-18T01:01:33.954Z,73690
2015-09-18T01:01:46.345Z,73699
2015-09-18T01:01:58.751Z,73692
2015-09-18T01:02:11.175Z,73698
2015-09-18T01:02:23.581Z,73694
2015-09-18T01:02:36.003Z,73703
2015-09-18T01:02:48.441Z,73700
2015-09-18T01:03:00.878Z,73702
2015-09-18T01:03:13.318Z,73706
2015-09-18T01:03:25.755Z,73706
2015-09-18T01:03:38.161Z,73708
2015-09-18T01:03:50.552Z,73707
2015-09-18T01:04:02.958Z,73712
2015-09-18T01:04:15.350Z,73703
2015-09-18T01:04:27.756Z,73710
2015-09-18T01:04:40.178Z,73702
2015-09-18T01:04:52.584Z,73704
2015-09-18T01:05:04.991Z,73702
2015-09-18T01:05:17.384Z,73705
2015-09-18T01:05:29.790Z,73699
2015-09-18T01:05:42.197Z,73705
2015-09-18T01:05:54.447Z,73697
2015-09-18T01:06:06.869Z,73698
2015-09-18T01:06:19.291Z,73694
2015-09-18T01:06:31.729Z,73697
2015-09-18T01:06:44.166Z,73692
2015-09-18T01:06:56.588Z,73695
2015-09-18T01:07:09.026Z,73694
2015-09-18T01:07:21.419Z,73697
2015-09-18T01:07:33.826Z,73694
2015-09-18T01:07:46.232Z,73700
2015-09-18T01:07:58.607Z,73698
2015-09-18T01:08:11.013Z,73701
2015-09-18T01:08:23.420Z,73705
2015-09-18T01:08:35.811Z,73699
2015-09-18T01:08:48.217Z,73702
2015-09-18T01:09:00.624Z,73706
2015-09-18T01:09:13.030Z,73706
2015-09-18T01:09:24.720Z,73703
2015-09-18T01:09:37.142Z,73704
2015-09-18T01:09:49.580Z,73706
2015-09-18T01:10:02.002Z,73702
2015-09-18T01:10:14.408Z,73708
2015-09-18T01:10:26.644Z,73703
2015-09-18T01:10:39.050Z,73704
2015-09-18T01:10:51.441Z,73705
2015-09-18T01:11:03.879Z,73699
2015-09-18T01:11:16.285Z,73704
2015-09-18T01:11:28.676Z,73696
2015-09-18T01:11:41.067Z,73697
2015-09-18T01:11:53.473Z,73693
2015-09-18T01:12:05.880Z,73691
2015-09-18T01:12:18.286Z,73693
2015-09-18T01:12:30.695Z,73688
2015-09-18T01:12:43.117Z,73693
2015-09-18T01:12:55.554Z,73689
2015-09-18T01:13:07.992Z,73695
2015-09-18T01:13:20.445Z,73690
2015-09-18T01:13:32.869Z,73696
2015-09-18T01:13:45.260Z,73693
2015-09-18T01:13:57.650Z,73699
2015-09-18T01:14:10.072Z,73696
2015-09-18T01:14:22.463Z,73703
2015-09-18T01:14:34.152Z,73698
2015-09-18T01:14:46.558Z,73696
2015-09-18T01:14:58.980Z,73701
2015-09-18T01:15:11.371Z,73695
2015-09-18T01:15:23.794Z,73699
2015-09-18T01:15:36.200Z,73694
2015-09-18T01:15:48.606Z,73695
2015-09-18T01:16:01.013Z,73692
2015-09-18T01:16:13.434Z,73696
2015-09-18T01:16:25.858Z,73691
2015-09-18T01:16:38.296Z,73694
2015-09-18T01:16:50.749Z,73689
2015-09-18T01:17:03.186Z,73690
2015-09-18T01:17:15.593Z,73690
2015-09-18T01:17:27.985Z,73687
2015-09-18T01:17:40.392Z,73693
2015-09-18T01:17:52.782Z,73692
2015-09-18T01:18:05.188Z,73693
2015-09-18T01:18:17.579Z,73688
2015-09-18T01:18:29.987Z,73693
2015-09-18T01:18:42.222Z,73693
2015-09-18T01:18:54.628Z,73696
2015-09-18T01:19:07.019Z,73699
2015-09-18T01:19:19.425Z,73696
2015-09-18T01:19:31.849Z,73698
2015-09-18T01:19:44.271Z,73697
2015-09-18T01:19:56.724Z,73700
2015-09-18T01:20:09.161Z,73699
2015-09-18T01:20:21.567Z,73699
2015-09-18T01:20:33.960Z,73698
2015-09-18T01:20:46.366Z,73695
2015-09-18T01:20:58.757Z,73701
2015-09-18T01:21:11.163Z,73697
2015-09-18T01:21:23.554Z,73701
2015-09-18T01:21:35.946Z,73698
2015-09-18T01:21:48.368Z,73700
2015-09-18T01:22:00.759Z,73697
2015-09-18T01:22:13.165Z,73699
2015-09-18T01:22:25.571Z,73699
2015-09-18T01:22:37.980Z,73696
2015-09-18T01:22:49.683Z,73699
2015-09-18T01:23:02.105Z,73700
2015-09-18T01:23:14.511Z,73700
2015-09-18T01:23:26.964Z,73700
2015-09-18T01:23:39.404Z,73696
2015-09-18T01:23:51.810Z,73697
2015-09-18T01:24:04.200Z,73691
2015-09-18T01:24:16.591Z,73694
2015-09-18T01:24:28.997Z,73697
2015-09-18T01:24:41.389Z,73693
2015-09-18T01:24:53.795Z,73699
2015-09-18T01:25:06.201Z,73693
2015-09-18T01:25:18.592Z,73702
2015-09-18T01:25:30.998Z,73695
2015-09-18T01:25:43.407Z,73700
2015-09-18T01:25:55.813Z,73692
2015-09-18T01:26:08.235Z,73696
2015-09-18T01:26:20.657Z,73693
2015-09-18T01:26:33.078Z,73694
2015-09-18T01:26:45.503Z,73695
2015-09-18T01:26:57.941Z,73691
2015-09-18T01:27:10.331Z,73698
2015-09-18T01:27:22.722Z,73696
2015-09-18T01:27:35.128Z,73700
2015-09-18T01:27:47.520Z,73694
2015-09-18T01:27:59.926Z,73698
2015-09-18T01:28:12.332Z,73695
2015-09-18T01:28:24.754Z,73701
2015-09-18T01:28:37.145Z,73699
2015-09-18T01:28:49.553Z,73704
2015-09-18T01:29:01.975Z,73700
2015-09-18T01:29:14.381Z,73706
2015-09-18T01:29:26.647Z,73696
2015-09-18T01:29:39.086Z,73700
2015-09-18T01:29:51.524Z,73701
2015-09-18T01:30:03.930Z,73699
2015-09-18T01:30:16.321Z,73700
2015-09-18T01:30:28.711Z,73701
2015-09-18T01:30:40.402Z,73699
2015-09-18T01:30:52.808Z,73698
2015-09-18T01:31:05.214Z,73702
2015-09-18T01:31:17.605Z,73698
2015-09-18T01:31:30.011Z,73706
2015-09-18T01:31:42.419Z,73700
2015-09-18T01:31:54.809Z,73705
2015-09-18T01:32:07.215Z,73701
2015-09-18T01:32:19.622Z,73695
2015-09-18T01:32:32.028Z,73695
2015-09-18T01:32:44.467Z,73699
2015-09-18T01:32:56.889Z,73696
2015-09-18T01:33:09.342Z,73697
2015-09-18T01:33:21.796Z,73695
2015-09-18T01:33:34.217Z,73700
2015-09-18T01:33:46.611Z,73700
2015-09-18T01:33:59.017Z,73700
2015-09-18T01:34:11.408Z,73700
2015-09-18T01:34:23.814Z,73698
2015-09-18T01:34:36.205Z,73704
2015-09-18T01:34:48.612Z,73700
2015-09-18T01:35:00.300Z,73701
2015-09-18T01:35:12.706Z,73694
2015-09-18T01:35:25.096Z,73701
2015-09-18T01:35:37.503Z,73697
2015-09-18T01:35:49.928Z,73697
2015-09-18T01:36:02.349Z,73695
2015-09-18T01:36:14.771Z,73694
2015-09-18T01:36:27.193Z,73696
2015-09-18T01:36:39.631Z,73700
2015-09-18T01:36:52.070Z,73692
2015-09-18T01:37:04.476Z,73698
2015-09-18T01:37:16.867Z,73694
2015-09-18T01:37:29.273Z,73696
2015-09-18T01:37:41.664Z,73695
2015-09-18T01:37:54.071Z,73696
2015-09-18T01:38:05.759Z,73697
2015-09-18T01:38:18.165Z,73698
2015-09-18T01:38:30.571Z,73701
2015-09-18T01:38:42.962Z,73693
2015-09-18T01:38:55.386Z,73697
2015-09-18T01:39:07.792Z,73688
2015-09-18T01:39:20.214Z,73694
2015-09-18T01:39:31.917Z,73694
2015-09-18T01:39:44.354Z,73701
2015-09-18T01:39:56.638Z,73696
2015-09-18T01:40:09.028Z,73695
2015-09-18T01:40:21.419Z,73698
2015-09-18T01:40:33.825Z,73693
2015-09-18T01:40:46.216Z,73701
2015-09-18T01:40:58.624Z,73696
2015-09-18T01:41:11.046Z,73699
2015-09-18T01:41:23.452Z,73698
2015-09-18T01:41:35.843Z,73706
2015-09-18T01:41:48.233Z,73697
2015-09-18T01:42:00.642Z,73698
2015-09-18T01:42:13.064Z,73701
2015-09-18T01:42:25.470Z,73701
2015-09-18T01:42:37.892Z,73704
2015-09-18T01:42:50.316Z,73706
2015-09-18T01:43:02.737Z,73701
2015-09-18T01:43:15.144Z,73695
2015-09-18T01:43:27.550Z,73703
2015-09-18T01:43:39.972Z,73697
2015-09-18T01:43:52.364Z,73697
2015-09-18T01:44:04.755Z,73698
2015-09-18T01:44:17.161Z,73695
2015-09-18T01:44:29.552Z,73695
2015-09-18T01:44:41.958Z,73693
2015-09-18T01:44:54.351Z,73694
2015-09-18T01:45:06.757Z,73695
2015-09-18T01:45:19.163Z,73697
2015-09-18T01:45:31.570Z,73692
2015-09-18T01:45:43.991Z,73694
2015-09-18T01:45:56.431Z,73692
2015-09-18T01:46:08.868Z,73699
2015-09-18T01:46:21.290Z,73696
2015-09-18T01:46:33.712Z,73695
2015-09-18T01:46:46.103Z,73703
2015-09-18T01:46:58.495Z,73693
2015-09-18T01:47:10.886Z,73699
2015-09-18T01:47:23.292Z,73698
2015-09-18T01:47:35.683Z,73698
2015-09-18T01:47:48.089Z,73694
2015-09-18T01:48:00.481Z,73695
2015-09-18T01:48:12.887Z,73697
2015-09-18T01:48:25.293Z,73697
2015-09-18T01:48:37.700Z,73695
2015-09-18T01:48:50.106Z,73697
2015-09-18T01:49:02.515Z,73698
2015-09-18T01:49:14.937Z,73695
2015-09-18T01:49:27.374Z,73699
2015-09-18T01:49:39.812Z,73698
2015-09-18T01:49:51.499Z,73697
2015-09-18T01:50:03.908Z,73703
2015-09-18T01:50:16.298Z,73698
2015-09-18T01:50:28.689Z,73705
2015-09-18T01:50:41.080Z,73702
2015-09-18T01:50:53.470Z,73703
2015-09-18T01:51:05.878Z,73701
2015-09-18T01:51:18.269Z,73695
2015-09-18T01:51:30.675Z,73698
2015-09-18T01:51:43.097Z,73698
2015-09-18T01:51:55.519Z,73705
2015-09-18T01:52:07.912Z,73701
2015-09-18T01:52:19.630Z,73704
2015-09-18T01:52:32.037Z,73700
2015-09-18T01:52:44.474Z,73704
2015-09-18T01:52:56.927Z,73698
2015-09-18T01:53:09.366Z,73698
2015-09-18T01:53:21.756Z,73697
2015-09-18T01:53:34.147Z,73702
2015-09-18T01:53:46.553Z,73699
2015-09-18T01:53:58.960Z,73696
2015-09-18T01:54:11.352Z,73696
2015-09-18T01:54:23.758Z,73697
2015-09-18T01:54:36.180Z,73695
2015-09-18T01:54:48.587Z,73698
2015-09-18T01:55:00.977Z,73697
2015-09-18T01:55:13.402Z,73697
2015-09-18T01:55:25.808Z,73695
2015-09-18T01:55:38.215Z,73695
2015-09-18T01:55:50.636Z,73699
2015-09-18T01:56:03.090Z,73694
2015-09-18T01:56:15.512Z,73699
2015-09-18T01:56:27.966Z,73693
2015-09-18T01:56:40.387Z,73698
2015-09-18T01:56:52.825Z,73698
2015-09-18T01:57:05.216Z,73699
2015-09-18T01:57:17.608Z,73700
2015-09-18T01:57:30.014Z,73702
2015-09-18T01:57:42.405Z,73700
2015-09-18T01:57:54.811Z,73706
2015-09-18T01:58:07.218Z,73704
2015-09-18T01:58:19.610Z,73703
2015-09-18T01:58:32.016Z,73701
2015-09-18T01:58:44.407Z,73705
2015-09-18T01:58:56.813Z,73705
2015-09-18T01:59:09.220Z,73703
2015-09-18T01:59:21.643Z,73706
2015-09-18T01:59:34.065Z,73701
2015-09-18T01:59:46.487Z,73706
2015-09-18T01:59:58.925Z,73703
2015-09-18T02:00:11.318Z,73704
2015-09-18T02:00:23.709Z,73705
2015-09-18T02:00:36.100Z,73709
2015-09-18T02:00:48.506Z,73705
2015-09-18T02:01:00.896Z,73704
2015-09-18T02:01:13.304Z,73705
2015-09-18T02:01:25.710Z,73708
2015-09-18T02:01:38.101Z,73705
2015-09-18T02:01:50.507Z,73703
2015-09-18T02:02:02.913Z,73707
2015-09-18T02:02:15.321Z,73704
2015-09-18T02:02:27.728Z,73705
2015-09-18T02:02:40.134Z,73703
2015-09-18T02:02:52.571Z,73702
2015-09-18T02:03:04.306Z,73701
2015-09-18T02:03:16.714Z,73700
2015-09-18T02:03:29.105Z,73697
2015-09-18T02:03:41.495Z,73702
2015-09-18T02:03:53.886Z,73698
2015-09-18T02:04:06.292Z,73702
2015-09-18T02:04:18.685Z,73701
2015-09-18T02:04:31.075Z,73699
2015-09-18T02:04:43.482Z,73704
2015-09-18T02:04:55.888Z,73702
2015-09-18T02:05:08.278Z,73708
2015-09-18T02:05:20.702Z,73705
2015-09-18T02:05:33.109Z,73708
2015-09-18T02:05:45.515Z,73706
2015-09-18T02:05:57.937Z,73703
2015-09-18T02:06:10.374Z,73703
2015-09-18T02:06:22.814Z,73709
2015-09-18T02:06:35.220Z,73702
2015-09-18T02:06:47.657Z,73707
2015-09-18T02:07:00.032Z,73707
2015-09-18T02:07:12.439Z,73711
2015-09-18T02:07:24.847Z,73702
2015-09-18T02:07:37.238Z,73708
2015-09-18T02:07:49.628Z,73706
2015-09-18T02:08:02.034Z,73711
2015-09-18T02:08:14.456Z,73712
2015-09-18T02:08:26.864Z,73713
2015-09-18T02:08:39.270Z,73711
2015-09-18T02:08:51.535Z,73712
2015-09-18T02:09:03.973Z,73716
2015-09-18T02:09:16.426Z,73710
2015-09-18T02:09:28.867Z,73719
2015-09-18T02:09:41.288Z,73712
2015-09-18T02:09:53.695Z,73712
2015-09-18T02:10:06.085Z,73709
2015-09-18T02:10:18.476Z,73716
2015-09-18T02:10:30.884Z,73714
2015-09-18T02:10:43.275Z,73714
2015-09-18T02:10:55.665Z,73711
2015-09-18T02:11:08.072Z,73711
2015-09-18T02:11:20.306Z,73706
2015-09-18T02:11:32.542Z,73711
2015-09-18T02:11:44.964Z,73714
2015-09-18T02:11:57.371Z,73712
2015-09-18T02:12:09.777Z,73710
2015-09-18T02:12:22.199Z,73714
2015-09-18T02:12:34.623Z,73712
2015-09-18T02:12:47.060Z,73719
2015-09-18T02:12:59.498Z,73709
2015-09-18T02:13:11.919Z,73707
2015-09-18T02:13:24.326Z,73709
2015-09-18T02:13:36.718Z,73706
2015-09-18T02:13:49.125Z,73708
2015-09-18T02:14:01.515Z,73711
2015-09-18T02:14:13.921Z,73707
2015-09-18T02:14:26.312Z,73709
2015-09-18T02:14:37.986Z,73703
2015-09-18T02:14:50.392Z,73706
2015-09-18T02:15:02.783Z,73701
2015-09-18T02:15:15.189Z,73704
2015-09-18T02:15:27.611Z,73695
2015-09-18T02:15:40.034Z,73697
2015-09-18T02:15:52.440Z,73700
2015-09-18T02:16:04.893Z,73704
2015-09-18T02:16:17.315Z,73703
2015-09-18T02:16:29.768Z,73703
2015-09-18T02:16:42.224Z,73704
2015-09-18T02:16:54.615Z,73702
2015-09-18T02:17:06.865Z,73708
2015-09-18T02:17:19.256Z,73701
2015-09-18T02:17:31.648Z,73707
2015-09-18T02:17:44.054Z,73700
2015-09-18T02:17:56.461Z,73702
2015-09-18T02:18:08.851Z,73705
2015-09-18T02:18:21.258Z,73705
2015-09-18T02:18:33.650Z,73702
2015-09-18T02:18:46.072Z,73702
2015-09-18T02:18:58.478Z,73706
2015-09-18T02:19:10.885Z,73703
2015-09-18T02:19:23.306Z,73703
2015-09-18T02:19:35.589Z,73704
2015-09-18T02:19:48.026Z,73702
2015-09-18T02:20:00.464Z,73698
2015-09-18T02:20:12.901Z,73701
2015-09-18T02:20:23.729Z,73702
2015-09-18T02:20:36.122Z,73702
2015-09-18T02:20:48.528Z,73697
2015-09-18T02:21:00.934Z,73700
2015-09-18T02:21:13.325Z,73701
2015-09-18T02:21:25.731Z,73691
2015-09-18T02:21:38.124Z,73702
2015-09-18T02:21:49.827Z,73697
2015-09-18T02:22:02.249Z,73697
2015-09-18T02:22:14.671Z,73693
2015-09-18T02:22:27.077Z,73694
2015-09-18T02:22:39.502Z,73696
2015-09-18T02:22:51.939Z,73700
2015-09-18T02:23:04.361Z,73694
2015-09-18T02:23:16.783Z,73704
2015-09-18T02:23:29.221Z,73695
2015-09-18T02:23:41.612Z,73700
2015-09-18T02:23:54.019Z,73693
2015-09-18T02:24:06.409Z,73700
2015-09-18T02:24:18.815Z,73696
2015-09-18T02:24:31.206Z,73696
2015-09-18T02:24:43.615Z,73695
2015-09-18T02:24:56.022Z,73696
2015-09-18T02:25:08.412Z,73700
2015-09-18T02:25:20.803Z,73693
2015-09-18T02:25:33.209Z,73698
2015-09-18T02:25:45.616Z,73699
2015-09-18T02:25:58.038Z,73697
2015-09-18T02:26:10.460Z,73700
2015-09-18T02:26:22.163Z,73698
2015-09-18T02:26:34.601Z,73696
2015-09-18T02:26:47.040Z,73699
2015-09-18T02:26:59.462Z,73698
2015-09-18T02:27:11.868Z,73698
2015-09-18T02:27:24.259Z,73700
2015-09-18T02:27:36.665Z,73698
2015-09-18T02:27:49.073Z,73700
2015-09-18T02:28:01.323Z,73695
2015-09-18T02:28:13.730Z,73698
2015-09-18T02:28:26.120Z,73698
2015-09-18T02:28:38.527Z,73699
2015-09-18T02:28:50.919Z,73699
2015-09-18T02:29:03.341Z,73700
2015-09-18T02:29:15.747Z,73695
2015-09-18T02:29:28.154Z,73703
2015-09-18T02:29:40.575Z,73697
2015-09-18T02:29:53.015Z,73697
2015-09-18T02:30:05.421Z,73701
2015-09-18T02:30:17.827Z,73696
2015-09-18T02:30:30.234Z,73693
2015-09-18T02:30:42.624Z,73695
2015-09-18T02:30:55.095Z,73697
2015-09-18T02:31:07.501Z,73698
2015-09-18T02:31:19.892Z,73694
2015-09-18T02:31:32.283Z,73693
2015-09-18T02:31:44.673Z,73697
2015-09-18T02:31:57.081Z,73691
2015-09-18T02:32:09.519Z,73699
2015-09-18T02:32:21.925Z,73688
2015-09-18T02:32:34.363Z,73695
2015-09-18T02:32:46.785Z,73691
2015-09-18T02:32:59.083Z,73696
2015-09-18T02:33:11.521Z,73689
2015-09-18T02:33:23.943Z,73691
2015-09-18T02:33:36.349Z,73690
2015-09-18T02:33:48.583Z,73689
2015-09-18T02:34:00.976Z,73690
2015-09-18T02:34:13.382Z,73691
2015-09-18T02:34:25.773Z,73695
2015-09-18T02:34:38.179Z,73691
2015-09-18T02:34:50.570Z,73693
2015-09-18T02:35:02.962Z,73692
2015-09-18T02:35:15.369Z,73693
2015-09-18T02:35:27.775Z,73690
2015-09-18T02:35:40.197Z,73693
2015-09-18T02:35:52.605Z,73693
2015-09-18T02:36:05.043Z,73693
2015-09-18T02:36:17.464Z,73691
2015-09-18T02:36:29.886Z,73692
2015-09-18T02:36:42.308Z,73695
2015-09-18T02:36:54.732Z,73692
2015-09-18T02:37:07.123Z,73692
2015-09-18T02:37:18.810Z,73691
2015-09-18T02:37:31.216Z,73690
2015-09-18T02:37:42.904Z,73693
2015-09-18T02:37:55.312Z,73689
2015-09-18T02:38:07.734Z,73685
2015-09-18T02:38:20.156Z,73692
2015-09-18T02:38:32.562Z,73688
2015-09-18T02:38:44.953Z,73688
2015-09-18T02:38:57.392Z,73684
2015-09-18T02:39:09.830Z,73685
2015-09-18T02:39:22.267Z,73692